sensor_id;sensor_type;location;lat;lon;timestamp;P1;durP1;ratioP1;P2;durP2;ratioP2
68176;SDS011;56478;50.982;7.032;2024-03-17T00:01:01;9.50;;;6.53;;
68176;SDS011;56478;50.982;7.032;2024-03-17T00:03:28;9.23;;;6.53;;
68176;SDS011;56478;50.982;7.032;2024-03-17T00:05:57;12.23;;;6.35;;
68176;SDS011;56478;50.982;7.032;2024-03-17T00:08:23;10.52;;;6.40;;
68176;SDS011;56478;50.982;7.032;2024-03-17T00:10:50;11.18;;;6.38;;
68176;SDS011;56478;50.982;7.032;2024-03-17T00:13:16;11.65;;;6.43;;
68176;SDS011;56478;50.982;7.032;2024-03-17T00:15:42;8.23;;;6.22;;
68176;SDS011;56478;50.982;7.032;2024-03-17T00:18:08;12.55;;;6.47;;
68176;SDS011;56478;50.982;7.032;2024-03-17T00:20:34;9.63;;;6.07;;
68176;SDS011;56478;50.982;7.032;2024-03-17T00:22:59;10.45;;;5.80;;
68176;SDS011;56478;50.982;7.032;2024-03-17T00:25:25;8.65;;;5.70;;
68176;SDS011;56478;50.982;7.032;2024-03-17T00:27:50;10.15;;;5.70;;
68176;SDS011;56478;50.982;7.032;2024-03-17T00:30:20;11.18;;;6.40;;
68176;SDS011;56478;50.982;7.032;2024-03-17T00:32:46;8.60;;;6.13;;
68176;SDS011;56478;50.982;7.032;2024-03-17T00:35:12;9.93;;;5.75;;
68176;SDS011;56478;50.982;7.032;2024-03-17T00:37:41;6.57;;;5.82;;
68176;SDS011;56478;50.982;7.032;2024-03-17T00:40:07;11.82;;;5.75;;
68176;SDS011;56478;50.982;7.032;2024-03-17T00:42:33;10.05;;;5.80;;
68176;SDS011;56478;50.982;7.032;2024-03-17T00:44:58;9.10;;;5.97;;
68176;SDS011;56478;50.982;7.032;2024-03-17T00:47:27;8.40;;;5.80;;
68176;SDS011;56478;50.982;7.032;2024-03-17T00:49:53;7.10;;;5.95;;
68176;SDS011;56478;50.982;7.032;2024-03-17T00:52:18;11.68;;;6.20;;
68176;SDS011;56478;50.982;7.032;2024-03-17T00:54:46;8.38;;;5.65;;
68176;SDS011;56478;50.982;7.032;2024-03-17T00:57:12;9.38;;;6.15;;
68176;SDS011;56478;50.982;7.032;2024-03-17T00:59:38;12.80;;;5.70;;
68176;SDS011;56478;50.982;7.032;2024-03-17T01:02:04;8.07;;;5.60;;
68176;SDS011;56478;50.982;7.032;2024-03-17T01:04:29;9.90;;;6.10;;
68176;SDS011;56478;50.982;7.032;2024-03-17T01:06:59;10.43;;;5.75;;
68176;SDS011;56478;50.982;7.032;2024-03-17T01:09:25;8.45;;;5.60;;
68176;SDS011;56478;50.982;7.032;2024-03-17T01:11:50;11.07;;;6.10;;
68176;SDS011;56478;50.982;7.032;2024-03-17T01:14:16;8.88;;;5.85;;
68176;SDS011;56478;50.982;7.032;2024-03-17T01:16:41;10.18;;;6.00;;
68176;SDS011;56478;50.982;7.032;2024-03-17T01:19:07;8.82;;;5.47;;
68176;SDS011;56478;50.982;7.032;2024-03-17T01:21:32;10.05;;;5.85;;
68176;SDS011;56478;50.982;7.032;2024-03-17T01:23:58;7.70;;;5.43;;
68176;SDS011;56478;50.982;7.032;2024-03-17T01:26:23;9.88;;;5.78;;
68176;SDS011;56478;50.982;7.032;2024-03-17T01:28:50;7.38;;;5.25;;
68176;SDS011;56478;50.982;7.032;2024-03-17T01:31:15;7.32;;;5.60;;
68176;SDS011;56478;50.982;7.032;2024-03-17T01:33:41;7.50;;;5.80;;
68176;SDS011;56478;50.982;7.032;2024-03-17T01:36:06;9.00;;;5.60;;
68176;SDS011;56478;50.982;7.032;2024-03-17T01:38:32;8.32;;;5.57;;
68176;SDS011;56478;50.982;7.032;2024-03-17T01:40:58;8.27;;;5.85;;
68176;SDS011;56478;50.982;7.032;2024-03-17T01:43:24;8.57;;;5.80;;
68176;SDS011;56478;50.982;7.032;2024-03-17T01:45:49;12.02;;;6.25;;
68176;SDS011;56478;50.982;7.032;2024-03-17T01:48:15;8.00;;;5.93;;
68176;SDS011;56478;50.982;7.032;2024-03-17T01:50:44;11.40;;;6.32;;
68176;SDS011;56478;50.982;7.032;2024-03-17T01:53:11;7.35;;;6.15;;
68176;SDS011;56478;50.982;7.032;2024-03-17T01:55:39;8.20;;;6.30;;
68176;SDS011;56478;50.982;7.032;2024-03-17T01:58:07;8.32;;;6.28;;
68176;SDS011;56478;50.982;7.032;2024-03-17T02:00:34;8.85;;;6.30;;
68176;SDS011;56478;50.982;7.032;2024-03-17T02:03:02;12.00;;;6.55;;
68176;SDS011;56478;50.982;7.032;2024-03-17T02:05:29;10.15;;;7.13;;
68176;SDS011;56478;50.982;7.032;2024-03-17T02:07:54;9.77;;;6.68;;
68176;SDS011;56478;50.982;7.032;2024-03-17T02:10:20;8.75;;;6.50;;
68176;SDS011;56478;50.982;7.032;2024-03-17T02:12:47;10.18;;;6.45;;
68176;SDS011;56478;50.982;7.032;2024-03-17T02:15:13;10.98;;;6.60;;
68176;SDS011;56478;50.982;7.032;2024-03-17T02:17:39;14.50;;;6.57;;
68176;SDS011;56478;50.982;7.032;2024-03-17T02:20:05;10.00;;;6.00;;
68176;SDS011;56478;50.982;7.032;2024-03-17T02:22:36;13.25;;;6.88;;
68176;SDS011;56478;50.982;7.032;2024-03-17T02:25:02;10.30;;;6.47;;
68176;SDS011;56478;50.982;7.032;2024-03-17T02:27:28;12.38;;;6.50;;
68176;SDS011;56478;50.982;7.032;2024-03-17T02:29:54;11.27;;;6.30;;
68176;SDS011;56478;50.982;7.032;2024-03-17T02:32:20;7.45;;;6.18;;
68176;SDS011;56478;50.982;7.032;2024-03-17T02:34:48;12.20;;;6.75;;
68176;SDS011;56478;50.982;7.032;2024-03-17T02:37:13;7.97;;;6.13;;
68176;SDS011;56478;50.982;7.032;2024-03-17T02:39:39;7.68;;;6.47;;
68176;SDS011;56478;50.982;7.032;2024-03-17T02:42:05;11.25;;;6.13;;
68176;SDS011;56478;50.982;7.032;2024-03-17T02:44:34;7.00;;;6.03;;
68176;SDS011;56478;50.982;7.032;2024-03-17T02:47:01;9.90;;;6.07;;
68176;SDS011;56478;50.982;7.032;2024-03-17T02:49:29;13.15;;;6.55;;
68176;SDS011;56478;50.982;7.032;2024-03-17T02:52:06;7.88;;;6.40;;
68176;SDS011;56478;50.982;7.032;2024-03-17T02:54:34;7.30;;;6.32;;
68176;SDS011;56478;50.982;7.032;2024-03-17T02:57:00;8.88;;;5.80;;
68176;SDS011;56478;50.982;7.032;2024-03-17T02:59:26;11.00;;;6.18;;
68176;SDS011;56478;50.982;7.032;2024-03-17T03:01:52;8.27;;;6.30;;
68176;SDS011;56478;50.982;7.032;2024-03-17T03:04:18;9.57;;;6.40;;
68176;SDS011;56478;50.982;7.032;2024-03-17T03:06:43;10.93;;;6.43;;
68176;SDS011;56478;50.982;7.032;2024-03-17T03:09:09;8.75;;;6.25;;
68176;SDS011;56478;50.982;7.032;2024-03-17T03:11:46;9.85;;;6.55;;
68176;SDS011;56478;50.982;7.032;2024-03-17T03:14:12;8.30;;;6.28;;
68176;SDS011;56478;50.982;7.032;2024-03-17T03:16:38;11.23;;;6.82;;
68176;SDS011;56478;50.982;7.032;2024-03-17T03:19:03;14.07;;;6.28;;
68176;SDS011;56478;50.982;7.032;2024-03-17T03:21:30;13.90;;;7.13;;
68176;SDS011;56478;50.982;7.032;2024-03-17T03:23:56;12.82;;;6.57;;
68176;SDS011;56478;50.982;7.032;2024-03-17T03:26:22;10.18;;;6.40;;
68176;SDS011;56478;50.982;7.032;2024-03-17T03:28:48;8.18;;;6.20;;
68176;SDS011;56478;50.982;7.032;2024-03-17T03:31:15;7.55;;;5.90;;
68176;SDS011;56478;50.982;7.032;2024-03-17T03:33:41;8.60;;;6.47;;
68176;SDS011;56478;50.982;7.032;2024-03-17T03:36:13;10.38;;;6.70;;
68176;SDS011;56478;50.982;7.032;2024-03-17T03:38:40;8.70;;;6.63;;
68176;SDS011;56478;50.982;7.032;2024-03-17T03:41:06;8.52;;;6.15;;
68176;SDS011;56478;50.982;7.032;2024-03-17T03:43:37;10.50;;;7.03;;
68176;SDS011;56478;50.982;7.032;2024-03-17T03:46:03;9.75;;;6.50;;
68176;SDS011;56478;50.982;7.032;2024-03-17T03:48:29;9.23;;;6.63;;
68176;SDS011;56478;50.982;7.032;2024-03-17T03:50:55;8.43;;;6.50;;
68176;SDS011;56478;50.982;7.032;2024-03-17T03:53:20;9.85;;;6.47;;
68176;SDS011;56478;50.982;7.032;2024-03-17T03:55:46;11.38;;;6.70;;
68176;SDS011;56478;50.982;7.032;2024-03-17T03:58:11;12.40;;;7.03;;
68176;SDS011;56478;50.982;7.032;2024-03-17T04:00:38;9.82;;;6.97;;
68176;SDS011;56478;50.982;7.032;2024-03-17T04:03:04;10.63;;;7.03;;
68176;SDS011;56478;50.982;7.032;2024-03-17T04:05:30;9.32;;;6.63;;
68176;SDS011;56478;50.982;7.032;2024-03-17T04:07:56;11.63;;;6.20;;
68176;SDS011;56478;50.982;7.032;2024-03-17T04:10:23;8.63;;;6.60;;
68176;SDS011;56478;50.982;7.032;2024-03-17T04:12:49;11.73;;;6.88;;
68176;SDS011;56478;50.982;7.032;2024-03-17T04:15:16;11.02;;;6.65;;
68176;SDS011;56478;50.982;7.032;2024-03-17T04:17:41;9.63;;;6.38;;
68176;SDS011;56478;50.982;7.032;2024-03-17T04:20:07;11.48;;;6.72;;
68176;SDS011;56478;50.982;7.032;2024-03-17T04:22:33;9.48;;;6.65;;
68176;SDS011;56478;50.982;7.032;2024-03-17T04:24:59;9.23;;;6.47;;
68176;SDS011;56478;50.982;7.032;2024-03-17T04:27:25;11.18;;;6.78;;
68176;SDS011;56478;50.982;7.032;2024-03-17T04:29:55;10.38;;;6.65;;
68176;SDS011;56478;50.982;7.032;2024-03-17T04:32:22;8.55;;;6.53;;
68176;SDS011;56478;50.982;7.032;2024-03-17T04:34:48;11.55;;;6.40;;
68176;SDS011;56478;50.982;7.032;2024-03-17T04:37:14;9.50;;;6.30;;
68176;SDS011;56478;50.982;7.032;2024-03-17T04:39:40;10.07;;;6.43;;
68176;SDS011;56478;50.982;7.032;2024-03-17T04:42:08;12.02;;;7.15;;
68176;SDS011;56478;50.982;7.032;2024-03-17T04:44:36;7.57;;;6.05;;
68176;SDS011;56478;50.982;7.032;2024-03-17T04:47:02;14.77;;;6.85;;
68176;SDS011;56478;50.982;7.032;2024-03-17T04:49:35;10.93;;;6.78;;
68176;SDS011;56478;50.982;7.032;2024-03-17T04:52:08;9.25;;;6.80;;
68176;SDS011;56478;50.982;7.032;2024-03-17T04:54:34;10.45;;;7.00;;
68176;SDS011;56478;50.982;7.032;2024-03-17T04:57:00;7.93;;;6.25;;
68176;SDS011;56478;50.982;7.032;2024-03-17T04:59:26;8.40;;;6.88;;
68176;SDS011;56478;50.982;7.032;2024-03-17T05:01:52;9.13;;;6.45;;
68176;SDS011;56478;50.982;7.032;2024-03-17T05:04:18;12.05;;;6.38;;
68176;SDS011;56478;50.982;7.032;2024-03-17T05:06:43;7.18;;;5.88;;
68176;SDS011;56478;50.982;7.032;2024-03-17T05:09:12;10.07;;;6.53;;
68176;SDS011;56478;50.982;7.032;2024-03-17T05:11:38;8.38;;;5.90;;
68176;SDS011;56478;50.982;7.032;2024-03-17T05:14:04;8.18;;;6.22;;
68176;SDS011;56478;50.982;7.032;2024-03-17T05:16:30;7.80;;;6.45;;
68176;SDS011;56478;50.982;7.032;2024-03-17T05:18:55;10.88;;;6.35;;
68176;SDS011;56478;50.982;7.032;2024-03-17T05:21:21;9.82;;;6.70;;
68176;SDS011;56478;50.982;7.032;2024-03-17T05:23:51;10.48;;;6.25;;
68176;SDS011;56478;50.982;7.032;2024-03-17T05:26:17;10.57;;;5.90;;
68176;SDS011;56478;50.982;7.032;2024-03-17T05:28:43;8.35;;;5.97;;
68176;SDS011;56478;50.982;7.032;2024-03-17T05:31:09;8.52;;;5.93;;
68176;SDS011;56478;50.982;7.032;2024-03-17T05:33:38;9.10;;;6.30;;
68176;SDS011;56478;50.982;7.032;2024-03-17T05:36:04;11.02;;;6.40;;
68176;SDS011;56478;50.982;7.032;2024-03-17T05:38:30;6.80;;;5.93;;
68176;SDS011;56478;50.982;7.032;2024-03-17T05:41:02;7.53;;;6.30;;
68176;SDS011;56478;50.982;7.032;2024-03-17T05:43:29;9.82;;;6.68;;
68176;SDS011;56478;50.982;7.032;2024-03-17T05:45:58;7.45;;;6.30;;
68176;SDS011;56478;50.982;7.032;2024-03-17T05:48:32;8.57;;;6.00;;
68176;SDS011;56478;50.982;7.032;2024-03-17T05:51:07;9.57;;;6.70;;
68176;SDS011;56478;50.982;7.032;2024-03-17T05:53:34;8.35;;;6.35;;
68176;SDS011;56478;50.982;7.032;2024-03-17T05:56:00;11.65;;;6.80;;
68176;SDS011;56478;50.982;7.032;2024-03-17T05:58:27;8.60;;;6.55;;
68176;SDS011;56478;50.982;7.032;2024-03-17T06:00:52;9.32;;;6.45;;
68176;SDS011;56478;50.982;7.032;2024-03-17T06:03:18;9.90;;;6.40;;
68176;SDS011;56478;50.982;7.032;2024-03-17T06:05:44;10.48;;;5.95;;
68176;SDS011;56478;50.982;7.032;2024-03-17T06:08:12;8.07;;;6.18;;
68176;SDS011;56478;50.982;7.032;2024-03-17T06:10:42;7.13;;;5.68;;
68176;SDS011;56478;50.982;7.032;2024-03-17T06:13:09;8.23;;;6.13;;
68176;SDS011;56478;50.982;7.032;2024-03-17T06:15:41;6.97;;;6.28;;
68176;SDS011;56478;50.982;7.032;2024-03-17T06:18:06;7.97;;;6.20;;
68176;SDS011;56478;50.982;7.032;2024-03-17T06:20:41;7.80;;;6.25;;
68176;SDS011;56478;50.982;7.032;2024-03-17T06:23:10;9.27;;;6.03;;
68176;SDS011;56478;50.982;7.032;2024-03-17T06:28:09;10.63;;;6.25;;
68176;SDS011;56478;50.982;7.032;2024-03-17T06:30:41;8.63;;;5.68;;
68176;SDS011;56478;50.982;7.032;2024-03-17T06:33:10;7.93;;;5.72;;
68176;SDS011;56478;50.982;7.032;2024-03-17T06:35:37;6.18;;;5.50;;
68176;SDS011;56478;50.982;7.032;2024-03-17T06:38:03;12.18;;;5.63;;
68176;SDS011;56478;50.982;7.032;2024-03-17T06:40:29;9.50;;;6.28;;
68176;SDS011;56478;50.982;7.032;2024-03-17T06:42:55;6.65;;;5.70;;
68176;SDS011;56478;50.982;7.032;2024-03-17T06:45:21;9.27;;;5.68;;
68176;SDS011;56478;50.982;7.032;2024-03-17T06:47:47;6.30;;;5.45;;
68176;SDS011;56478;50.982;7.032;2024-03-17T06:50:14;8.82;;;5.78;;
68176;SDS011;56478;50.982;7.032;2024-03-17T06:52:39;8.57;;;6.18;;
68176;SDS011;56478;50.982;7.032;2024-03-17T06:55:05;6.63;;;5.30;;
68176;SDS011;56478;50.982;7.032;2024-03-17T06:57:32;7.85;;;5.88;;
68176;SDS011;56478;50.982;7.032;2024-03-17T07:00:01;6.18;;;5.40;;
68176;SDS011;56478;50.982;7.032;2024-03-17T07:02:30;6.70;;;5.38;;
68176;SDS011;56478;50.982;7.032;2024-03-17T07:04:57;10.05;;;5.60;;
68176;SDS011;56478;50.982;7.032;2024-03-17T07:07:23;8.82;;;5.47;;
68176;SDS011;56478;50.982;7.032;2024-03-17T07:09:51;6.55;;;5.60;;
68176;SDS011;56478;50.982;7.032;2024-03-17T07:12:16;5.70;;;5.20;;
68176;SDS011;56478;50.982;7.032;2024-03-17T07:14:42;6.43;;;5.53;;
68176;SDS011;56478;50.982;7.032;2024-03-17T07:17:07;6.38;;;5.45;;
68176;SDS011;56478;50.982;7.032;2024-03-17T07:19:33;8.63;;;5.55;;
68176;SDS011;56478;50.982;7.032;2024-03-17T07:22:01;5.65;;;5.13;;
68176;SDS011;56478;50.982;7.032;2024-03-17T07:24:26;6.15;;;5.13;;
68176;SDS011;56478;50.982;7.032;2024-03-17T07:26:52;6.20;;;5.40;;
68176;SDS011;56478;50.982;7.032;2024-03-17T07:29:18;7.22;;;5.20;;
68176;SDS011;56478;50.982;7.032;2024-03-17T07:31:44;7.68;;;5.13;;
68176;SDS011;56478;50.982;7.032;2024-03-17T07:34:10;6.72;;;5.00;;
68176;SDS011;56478;50.982;7.032;2024-03-17T07:36:35;5.68;;;4.90;;
68176;SDS011;56478;50.982;7.032;2024-03-17T07:39:01;5.78;;;5.28;;
68176;SDS011;56478;50.982;7.032;2024-03-17T07:41:27;6.75;;;5.18;;
68176;SDS011;56478;50.982;7.032;2024-03-17T07:43:53;10.65;;;5.18;;
68176;SDS011;56478;50.982;7.032;2024-03-17T07:46:19;5.65;;;5.05;;
68176;SDS011;56478;50.982;7.032;2024-03-17T07:48:45;6.13;;;4.90;;
68176;SDS011;56478;50.982;7.032;2024-03-17T07:51:11;5.72;;;5.10;;
68176;SDS011;56478;50.982;7.032;2024-03-17T07:53:42;5.22;;;4.68;;
68176;SDS011;56478;50.982;7.032;2024-03-17T07:56:10;5.97;;;4.75;;
68176;SDS011;56478;50.982;7.032;2024-03-17T07:58:38;6.38;;;4.97;;
68176;SDS011;56478;50.982;7.032;2024-03-17T08:01:05;5.90;;;4.82;;
68176;SDS011;56478;50.982;7.032;2024-03-17T08:03:35;5.45;;;4.80;;
68176;SDS011;56478;50.982;7.032;2024-03-17T08:06:04;5.47;;;4.50;;
68176;SDS011;56478;50.982;7.032;2024-03-17T08:08:31;6.40;;;4.60;;
68176;SDS011;56478;50.982;7.032;2024-03-17T08:10:57;4.60;;;4.20;;
68176;SDS011;56478;50.982;7.032;2024-03-17T08:13:23;4.50;;;4.10;;
68176;SDS011;56478;50.982;7.032;2024-03-17T08:15:56;4.97;;;4.18;;
68176;SDS011;56478;50.982;7.032;2024-03-17T08:18:23;5.70;;;3.72;;
68176;SDS011;56478;50.982;7.032;2024-03-17T08:20:50;4.93;;;3.80;;
68176;SDS011;56478;50.982;7.032;2024-03-17T08:23:15;4.10;;;3.65;;
68176;SDS011;56478;50.982;7.032;2024-03-17T08:25:41;4.30;;;3.88;;
68176;SDS011;56478;50.982;7.032;2024-03-17T08:28:07;4.75;;;3.50;;
68176;SDS011;56478;50.982;7.032;2024-03-17T08:30:32;4.65;;;3.50;;
68176;SDS011;56478;50.982;7.032;2024-03-17T08:32:58;3.70;;;3.40;;
68176;SDS011;56478;50.982;7.032;2024-03-17T08:35:24;3.70;;;3.40;;
68176;SDS011;56478;50.982;7.032;2024-03-17T08:37:50;3.95;;;3.35;;
68176;SDS011;56478;50.982;7.032;2024-03-17T08:40:18;3.70;;;3.40;;
68176;SDS011;56478;50.982;7.032;2024-03-17T08:42:43;4.82;;;3.75;;
68176;SDS011;56478;50.982;7.032;2024-03-17T08:45:12;5.68;;;3.42;;
68176;SDS011;56478;50.982;7.032;2024-03-17T08:50:03;3.38;;;3.08;;
68176;SDS011;56478;50.982;7.032;2024-03-17T08:52:30;3.55;;;3.25;;
68176;SDS011;56478;50.982;7.032;2024-03-17T08:54:58;5.20;;;3.38;;
68176;SDS011;56478;50.982;7.032;2024-03-17T08:57:24;4.05;;;2.90;;
68176;SDS011;56478;50.982;7.032;2024-03-17T08:59:50;3.90;;;2.97;;
68176;SDS011;56478;50.982;7.032;2024-03-17T09:02:20;3.83;;;3.03;;
68176;SDS011;56478;50.982;7.032;2024-03-17T09:04:48;5.72;;;2.90;;
68176;SDS011;56478;50.982;7.032;2024-03-17T09:07:14;4.47;;;3.08;;
68176;SDS011;56478;50.982;7.032;2024-03-17T09:09:43;3.55;;;3.25;;
68176;SDS011;56478;50.982;7.032;2024-03-17T09:12:09;3.33;;;3.00;;
68176;SDS011;56478;50.982;7.032;2024-03-17T09:14:34;3.10;;;2.80;;
68176;SDS011;56478;50.982;7.032;2024-03-17T09:17:00;5.53;;;2.70;;
68176;SDS011;56478;50.982;7.032;2024-03-17T09:19:26;3.85;;;2.83;;
68176;SDS011;56478;50.982;7.032;2024-03-17T09:21:51;3.03;;;2.50;;
68176;SDS011;56478;50.982;7.032;2024-03-17T09:24:16;3.30;;;2.97;;
68176;SDS011;56478;50.982;7.032;2024-03-17T09:26:42;3.13;;;2.83;;
68176;SDS011;56478;50.982;7.032;2024-03-17T09:29:08;2.70;;;2.47;;
68176;SDS011;56478;50.982;7.032;2024-03-17T09:31:33;4.88;;;2.90;;
68176;SDS011;56478;50.982;7.032;2024-03-17T09:34:01;3.22;;;2.38;;
68176;SDS011;56478;50.982;7.032;2024-03-17T09:36:27;2.72;;;2.53;;
68176;SDS011;56478;50.982;7.032;2024-03-17T09:38:52;2.65;;;2.40;;
68176;SDS011;56478;50.982;7.032;2024-03-17T09:41:21;3.83;;;2.60;;
68176;SDS011;56478;50.982;7.032;2024-03-17T09:43:50;2.97;;;2.63;;
68176;SDS011;56478;50.982;7.032;2024-03-17T09:48:44;4.05;;;2.75;;
68176;SDS011;56478;50.982;7.032;2024-03-17T09:51:16;4.47;;;2.47;;
68176;SDS011;56478;50.982;7.032;2024-03-17T09:53:44;4.05;;;2.60;;
68176;SDS011;56478;50.982;7.032;2024-03-17T09:58:41;3.03;;;2.70;;
68176;SDS011;56478;50.982;7.032;2024-03-17T10:03:41;3.38;;;2.67;;
68176;SDS011;56478;50.982;7.032;2024-03-17T10:06:18;3.50;;;3.25;;
68176;SDS011;56478;50.982;7.032;2024-03-17T10:11:11;6.68;;;3.00;;
68176;SDS011;56478;50.982;7.032;2024-03-17T10:13:39;3.15;;;2.90;;
68176;SDS011;56478;50.982;7.032;2024-03-17T10:16:05;3.40;;;3.10;;
68176;SDS011;56478;50.982;7.032;2024-03-17T10:18:30;3.80;;;2.75;;
68176;SDS011;56478;50.982;7.032;2024-03-17T10:20:56;3.03;;;2.80;;
68176;SDS011;56478;50.982;7.032;2024-03-17T10:23:24;3.00;;;2.67;;
68176;SDS011;56478;50.982;7.032;2024-03-17T10:25:49;7.55;;;2.78;;
68176;SDS011;56478;50.982;7.032;2024-03-17T10:28:16;2.85;;;2.65;;
68176;SDS011;56478;50.982;7.032;2024-03-17T10:30:42;3.08;;;2.80;;
68176;SDS011;56478;50.982;7.032;2024-03-17T10:33:22;3.33;;;2.72;;
68176;SDS011;56478;50.982;7.032;2024-03-17T10:35:57;4.40;;;2.80;;
68176;SDS011;56478;50.982;7.032;2024-03-17T10:38:25;3.30;;;3.00;;
68176;SDS011;56478;50.982;7.032;2024-03-17T10:40:52;3.25;;;3.03;;
68176;SDS011;56478;50.982;7.032;2024-03-17T10:43:17;3.42;;;2.90;;
68176;SDS011;56478;50.982;7.032;2024-03-17T10:45:49;3.22;;;2.92;;
68176;SDS011;56478;50.982;7.032;2024-03-17T10:48:16;3.88;;;2.80;;
68176;SDS011;56478;50.982;7.032;2024-03-17T10:50:46;2.95;;;2.35;;
68176;SDS011;56478;50.982;7.032;2024-03-17T10:53:13;2.80;;;2.60;;
68176;SDS011;56478;50.982;7.032;2024-03-17T10:55:51;4.43;;;3.00;;
68176;SDS011;56478;50.982;7.032;2024-03-17T10:58:38;3.95;;;3.10;;
68176;SDS011;56478;50.982;7.032;2024-03-17T11:01:15;3.63;;;3.20;;
68176;SDS011;56478;50.982;7.032;2024-03-17T11:03:41;4.20;;;3.10;;
68176;SDS011;56478;50.982;7.032;2024-03-17T11:06:08;4.10;;;2.92;;
68176;SDS011;56478;50.982;7.032;2024-03-17T11:08:35;3.58;;;3.00;;
68176;SDS011;56478;50.982;7.032;2024-03-17T11:11:02;4.43;;;3.03;;
68176;SDS011;56478;50.982;7.032;2024-03-17T11:13:29;5.88;;;3.20;;
68176;SDS011;56478;50.982;7.032;2024-03-17T11:15:57;3.45;;;2.90;;
68176;SDS011;56478;50.982;7.032;2024-03-17T11:18:36;4.57;;;3.22;;
68176;SDS011;56478;50.982;7.032;2024-03-17T11:21:06;5.38;;;3.60;;
68176;SDS011;56478;50.982;7.032;2024-03-17T11:23:39;7.30;;;3.28;;
68176;SDS011;56478;50.982;7.032;2024-03-17T11:26:05;3.63;;;3.25;;
68176;SDS011;56478;50.982;7.032;2024-03-17T11:28:44;3.35;;;2.80;;
68176;SDS011;56478;50.982;7.032;2024-03-17T11:34:03;4.88;;;3.17;;
68176;SDS011;56478;50.982;7.032;2024-03-17T11:36:38;3.88;;;3.28;;
68176;SDS011;56478;50.982;7.032;2024-03-17T11:39:08;6.43;;;3.22;;
68176;SDS011;56478;50.982;7.032;2024-03-17T11:41:43;4.53;;;3.38;;
68176;SDS011;56478;50.982;7.032;2024-03-17T11:47:01;3.50;;;3.20;;
68176;SDS011;56478;50.982;7.032;2024-03-17T11:52:04;6.15;;;3.30;;
68176;SDS011;56478;50.982;7.032;2024-03-17T11:54:34;4.15;;;3.25;;
68176;SDS011;56478;50.982;7.032;2024-03-17T11:57:04;4.38;;;3.30;;
68176;SDS011;56478;50.982;7.032;2024-03-17T11:59:34;3.92;;;3.50;;
68176;SDS011;56478;50.982;7.032;2024-03-17T12:02:00;3.50;;;3.20;;
68176;SDS011;56478;50.982;7.032;2024-03-17T12:04:29;4.50;;;3.30;;
68176;SDS011;56478;50.982;7.032;2024-03-17T12:06:55;4.88;;;3.45;;
68176;SDS011;56478;50.982;7.032;2024-03-17T12:11:58;4.47;;;3.30;;
68176;SDS011;56478;50.982;7.032;2024-03-17T12:14:25;5.57;;;3.42;;
68176;SDS011;56478;50.982;7.032;2024-03-17T12:16:55;4.60;;;3.10;;
68176;SDS011;56478;50.982;7.032;2024-03-17T12:19:22;3.17;;;2.97;;
68176;SDS011;56478;50.982;7.032;2024-03-17T12:21:53;3.00;;;2.80;;
68176;SDS011;56478;50.982;7.032;2024-03-17T12:24:26;4.00;;;3.20;;
68176;SDS011;56478;50.982;7.032;2024-03-17T12:26:53;3.58;;;3.10;;
68176;SDS011;56478;50.982;7.032;2024-03-17T12:31:58;3.92;;;3.20;;
68176;SDS011;56478;50.982;7.032;2024-03-17T12:34:27;5.22;;;3.30;;
68176;SDS011;56478;50.982;7.032;2024-03-17T12:36:54;5.15;;;3.22;;
68176;SDS011;56478;50.982;7.032;2024-03-17T12:39:21;3.38;;;3.08;;
68176;SDS011;56478;50.982;7.032;2024-03-17T12:44:37;4.65;;;3.20;;
68176;SDS011;56478;50.982;7.032;2024-03-17T12:47:07;3.35;;;3.05;;
68176;SDS011;56478;50.982;7.032;2024-03-17T12:49:47;4.82;;;3.30;;
68176;SDS011;56478;50.982;7.032;2024-03-17T12:52:23;3.25;;;3.03;;
68176;SDS011;56478;50.982;7.032;2024-03-17T12:54:59;4.35;;;3.33;;
68176;SDS011;56478;50.982;7.032;2024-03-17T12:57:44;7.03;;;3.10;;
68176;SDS011;56478;50.982;7.032;2024-03-17T13:00:35;3.58;;;3.17;;
68176;SDS011;56478;50.982;7.032;2024-03-17T13:03:01;5.13;;;3.25;;
68176;SDS011;56478;50.982;7.032;2024-03-17T13:05:28;4.30;;;3.10;;
68176;SDS011;56478;50.982;7.032;2024-03-17T13:07:54;6.65;;;3.75;;
68176;SDS011;56478;50.982;7.032;2024-03-17T13:10:22;3.90;;;3.05;;
68176;SDS011;56478;50.982;7.032;2024-03-17T13:12:57;12.20;;;4.85;;
68176;SDS011;56478;50.982;7.032;2024-03-17T13:15:27;3.28;;;2.85;;
68176;SDS011;56478;50.982;7.032;2024-03-17T13:17:55;7.07;;;2.90;;
68176;SDS011;56478;50.982;7.032;2024-03-17T13:20:21;4.30;;;2.50;;
68176;SDS011;56478;50.982;7.032;2024-03-17T13:22:46;4.85;;;2.80;;
68176;SDS011;56478;50.982;7.032;2024-03-17T13:25:15;3.55;;;2.60;;
68176;SDS011;56478;50.982;7.032;2024-03-17T13:27:48;3.60;;;2.75;;
68176;SDS011;56478;50.982;7.032;2024-03-17T13:30:15;4.15;;;2.58;;
68176;SDS011;56478;50.982;7.032;2024-03-17T13:32:41;8.63;;;3.95;;
68176;SDS011;56478;50.982;7.032;2024-03-17T13:37:42;4.57;;;2.70;;
68176;SDS011;56478;50.982;7.032;2024-03-17T13:40:10;4.13;;;3.08;;
68176;SDS011;56478;50.982;7.032;2024-03-17T13:42:38;3.47;;;2.55;;
68176;SDS011;56478;50.982;7.032;2024-03-17T13:45:04;3.67;;;2.53;;
68176;SDS011;56478;50.982;7.032;2024-03-17T13:47:35;2.65;;;2.45;;
68176;SDS011;56478;50.982;7.032;2024-03-17T13:50:00;3.50;;;2.47;;
68176;SDS011;56478;50.982;7.032;2024-03-17T13:52:26;3.30;;;2.50;;
68176;SDS011;56478;50.982;7.032;2024-03-17T13:54:51;4.60;;;2.47;;
68176;SDS011;56478;50.982;7.032;2024-03-17T13:57:17;2.72;;;2.40;;
68176;SDS011;56478;50.982;7.032;2024-03-17T13:59:42;3.97;;;2.70;;
68176;SDS011;56478;50.982;7.032;2024-03-17T14:02:11;3.47;;;2.78;;
68176;SDS011;56478;50.982;7.032;2024-03-17T14:04:37;3.05;;;2.75;;
68176;SDS011;56478;50.982;7.032;2024-03-17T14:07:03;3.28;;;2.58;;
68176;SDS011;56478;50.982;7.032;2024-03-17T14:09:29;2.42;;;2.30;;
68176;SDS011;56478;50.982;7.032;2024-03-17T14:11:56;2.72;;;2.53;;
68176;SDS011;56478;50.982;7.032;2024-03-17T14:14:22;5.10;;;2.78;;
68176;SDS011;56478;50.982;7.032;2024-03-17T14:16:48;2.83;;;2.55;;
68176;SDS011;56478;50.982;7.032;2024-03-17T14:19:14;2.70;;;2.40;;
68176;SDS011;56478;50.982;7.032;2024-03-17T14:21:39;4.13;;;2.72;;
68176;SDS011;56478;50.982;7.032;2024-03-17T14:24:05;3.67;;;2.70;;
68176;SDS011;56478;50.982;7.032;2024-03-17T14:26:33;4.17;;;3.00;;
68176;SDS011;56478;50.982;7.032;2024-03-17T14:29:00;2.85;;;2.58;;
68176;SDS011;56478;50.982;7.032;2024-03-17T14:31:29;3.83;;;2.65;;
68176;SDS011;56478;50.982;7.032;2024-03-17T14:33:56;4.03;;;2.60;;
68176;SDS011;56478;50.982;7.032;2024-03-17T14:36:22;4.05;;;2.65;;
68176;SDS011;56478;50.982;7.032;2024-03-17T14:38:52;2.95;;;2.50;;
68176;SDS011;56478;50.982;7.032;2024-03-17T14:41:18;2.60;;;2.40;;
68176;SDS011;56478;50.982;7.032;2024-03-17T14:43:44;4.57;;;2.78;;
68176;SDS011;56478;50.982;7.032;2024-03-17T14:46:11;4.25;;;2.78;;
68176;SDS011;56478;50.982;7.032;2024-03-17T14:48:40;4.78;;;2.63;;
68176;SDS011;56478;50.982;7.032;2024-03-17T14:51:05;3.20;;;2.72;;
68176;SDS011;56478;50.982;7.032;2024-03-17T14:53:32;3.40;;;2.95;;
68176;SDS011;56478;50.982;7.032;2024-03-17T14:55:57;3.20;;;2.90;;
68176;SDS011;56478;50.982;7.032;2024-03-17T14:58:24;2.90;;;2.70;;
68176;SDS011;56478;50.982;7.032;2024-03-17T15:00:49;3.55;;;2.70;;
68176;SDS011;56478;50.982;7.032;2024-03-17T15:03:15;3.13;;;2.50;;
68176;SDS011;56478;50.982;7.032;2024-03-17T15:05:40;2.80;;;2.40;;
68176;SDS011;56478;50.982;7.032;2024-03-17T15:08:07;3.40;;;2.58;;
68176;SDS011;56478;50.982;7.032;2024-03-17T15:10:35;4.88;;;2.70;;
68176;SDS011;56478;50.982;7.032;2024-03-17T15:13:01;2.85;;;2.42;;
68176;SDS011;56478;50.982;7.032;2024-03-17T15:15:27;2.83;;;2.60;;
68176;SDS011;56478;50.982;7.032;2024-03-17T15:17:53;3.80;;;2.55;;
68176;SDS011;56478;50.982;7.032;2024-03-17T15:20:19;5.05;;;3.10;;